sensor_id;sensor_type;location;lat;lon;timestamp;P1;durP1;ratioP1;P2;durP2;ratioP2
71464;SDS011;59274;49.874;9.154;2023-05-15T00:00:50;3.58;;;1.70;;
71464;SDS011;59274;49.874;9.154;2023-05-15T00:03:15;2.83;;;1.50;;
71464;SDS011;59274;49.874;9.154;2023-05-15T00:05:41;3.08;;;1.85;;
71464;SDS011;59274;49.874;9.154;2023-05-15T00:08:07;7.83;;;1.87;;
71464;SDS011;59274;49.874;9.154;2023-05-15T00:10:32;5.40;;;1.95;;
71464;SDS011;59274;49.874;9.154;2023-05-15T00:12:58;5.93;;;1.90;;
71464;SDS011;59274;49.874;9.154;2023-05-15T00:15:23;4.90;;;2.43;;
71464;SDS011;59274;49.874;9.154;2023-05-15T00:17:48;4.77;;;2.60;;
71464;SDS011;59274;49.874;9.154;2023-05-15T00:20:14;6.90;;;2.60;;
71464;SDS011;59274;49.874;9.154;2023-05-15T00:22:39;4.63;;;2.50;;
71464;SDS011;59274;49.874;9.154;2023-05-15T00:25:05;7.07;;;2.30;;
71464;SDS011;59274;49.874;9.154;2023-05-15T00:27:31;5.70;;;2.80;;
71464;SDS011;59274;49.874;9.154;2023-05-15T00:29:56;10.07;;;3.25;;
71464;SDS011;59274;49.874;9.154;2023-05-15T00:32:21;5.97;;;2.50;;
71464;SDS011;59274;49.874;9.154;2023-05-15T00:34:47;4.97;;;2.40;;
71464;SDS011;59274;49.874;9.154;2023-05-15T00:37:12;6.00;;;2.53;;
71464;SDS011;59274;49.874;9.154;2023-05-15T00:39:38;5.15;;;2.42;;
71464;SDS011;59274;49.874;9.154;2023-05-15T00:42:04;5.83;;;2.70;;
71464;SDS011;59274;49.874;9.154;2023-05-15T00:44:31;7.10;;;3.40;;
71464;SDS011;59274;49.874;9.154;2023-05-15T00:46:58;7.70;;;3.08;;
71464;SDS011;59274;49.874;9.154;2023-05-15T00:49:26;4.22;;;2.28;;
71464;SDS011;59274;49.874;9.154;2023-05-15T00:51:54;6.50;;;2.63;;
71464;SDS011;59274;49.874;9.154;2023-05-15T00:54:25;5.72;;;3.17;;
71464;SDS011;59274;49.874;9.154;2023-05-15T00:56:51;4.93;;;2.38;;
71464;SDS011;59274;49.874;9.154;2023-05-15T00:59:20;6.93;;;2.50;;
71464;SDS011;59274;49.874;9.154;2023-05-15T01:01:47;5.53;;;2.58;;
71464;SDS011;59274;49.874;9.154;2023-05-15T01:04:14;7.60;;;3.22;;
71464;SDS011;59274;49.874;9.154;2023-05-15T01:06:40;6.75;;;3.35;;
71464;SDS011;59274;49.874;9.154;2023-05-15T01:09:06;7.10;;;3.13;;
71464;SDS011;59274;49.874;9.154;2023-05-15T01:11:32;5.85;;;3.30;;
71464;SDS011;59274;49.874;9.154;2023-05-15T01:14:02;8.23;;;2.67;;
71464;SDS011;59274;49.874;9.154;2023-05-15T01:16:31;6.95;;;3.17;;
71464;SDS011;59274;49.874;9.154;2023-05-15T01:18:58;6.25;;;2.90;;
71464;SDS011;59274;49.874;9.154;2023-05-15T01:29:28;8.65;;;4.15;;
71464;SDS011;59274;49.874;9.154;2023-05-15T01:32:01;7.95;;;3.70;;
71464;SDS011;59274;49.874;9.154;2023-05-15T01:34:43;7.70;;;3.07;;
71464;SDS011;59274;49.874;9.154;2023-05-15T01:37:18;5.65;;;2.55;;
71464;SDS011;59274;49.874;9.154;2023-05-15T01:39:49;5.38;;;2.72;;
71464;SDS011;59274;49.874;9.154;2023-05-15T01:42:19;7.20;;;2.92;;
71464;SDS011;59274;49.874;9.154;2023-05-15T01:44:52;7.43;;;3.45;;
71464;SDS011;59274;49.874;9.154;2023-05-15T01:47:20;5.20;;;2.17;;
71464;SDS011;59274;49.874;9.154;2023-05-15T01:49:51;4.60;;;2.05;;
71464;SDS011;59274;49.874;9.154;2023-05-15T01:52:22;4.65;;;2.22;;
71464;SDS011;59274;49.874;9.154;2023-05-15T01:54:52;8.07;;;2.65;;
71464;SDS011;59274;49.874;9.154;2023-05-15T01:57:19;5.97;;;3.05;;
71464;SDS011;59274;49.874;9.154;2023-05-15T01:59:45;7.13;;;2.70;;
71464;SDS011;59274;49.874;9.154;2023-05-15T02:02:11;5.63;;;2.45;;
71464;SDS011;59274;49.874;9.154;2023-05-15T02:04:38;5.15;;;2.55;;
71464;SDS011;59274;49.874;9.154;2023-05-15T02:07:05;5.40;;;2.03;;
71464;SDS011;59274;49.874;9.154;2023-05-15T02:09:31;6.15;;;2.78;;
71464;SDS011;59274;49.874;9.154;2023-05-15T02:11:59;5.90;;;2.67;;
71464;SDS011;59274;49.874;9.154;2023-05-15T02:14:27;5.35;;;2.63;;
71464;SDS011;59274;49.874;9.154;2023-05-15T02:16:53;7.82;;;3.00;;
71464;SDS011;59274;49.874;9.154;2023-05-15T02:19:19;5.47;;;2.65;;
71464;SDS011;59274;49.874;9.154;2023-05-15T02:21:44;5.43;;;2.40;;
71464;SDS011;59274;49.874;9.154;2023-05-15T02:24:09;7.10;;;2.80;;
71464;SDS011;59274;49.874;9.154;2023-05-15T02:26:38;7.57;;;3.53;;
71464;SDS011;59274;49.874;9.154;2023-05-15T02:29:19;4.10;;;2.03;;
71464;SDS011;59274;49.874;9.154;2023-05-15T02:31:51;5.90;;;2.47;;
71464;SDS011;59274;49.874;9.154;2023-05-15T02:37:14;4.70;;;2.43;;
71464;SDS011;59274;49.874;9.154;2023-05-15T02:39:45;6.03;;;2.75;;
71464;SDS011;59274;49.874;9.154;2023-05-15T02:42:13;6.05;;;3.00;;
71464;SDS011;59274;49.874;9.154;2023-05-15T02:44:40;5.85;;;1.95;;
71464;SDS011;59274;49.874;9.154;2023-05-15T02:47:07;4.65;;;2.08;;
71464;SDS011;59274;49.874;9.154;2023-05-15T02:49:35;5.70;;;2.73;;
71464;SDS011;59274;49.874;9.154;2023-05-15T02:52:01;6.60;;;2.47;;
71464;SDS011;59274;49.874;9.154;2023-05-15T02:54:27;7.22;;;2.95;;
71464;SDS011;59274;49.874;9.154;2023-05-15T02:56:55;5.93;;;2.30;;
71464;SDS011;59274;49.874;9.154;2023-05-15T02:59:20;6.25;;;2.00;;
71464;SDS011;59274;49.874;9.154;2023-05-15T03:01:46;7.23;;;1.87;;
71464;SDS011;59274;49.874;9.154;2023-05-15T03:04:15;5.43;;;2.50;;
71464;SDS011;59274;49.874;9.154;2023-05-15T03:06:41;6.07;;;2.37;;
71464;SDS011;59274;49.874;9.154;2023-05-15T03:09:06;6.25;;;2.60;;
71464;SDS011;59274;49.874;9.154;2023-05-15T03:11:32;4.23;;;1.83;;
71464;SDS011;59274;49.874;9.154;2023-05-15T03:13:57;4.63;;;2.20;;
71464;SDS011;59274;49.874;9.154;2023-05-15T03:16:24;3.80;;;1.58;;
71464;SDS011;59274;49.874;9.154;2023-05-15T03:18:50;4.22;;;2.25;;
71464;SDS011;59274;49.874;9.154;2023-05-15T03:21:16;5.17;;;2.43;;
71464;SDS011;59274;49.874;9.154;2023-05-15T03:23:42;6.25;;;2.55;;
71464;SDS011;59274;49.874;9.154;2023-05-15T03:26:07;6.23;;;2.93;;
71464;SDS011;59274;49.874;9.154;2023-05-15T03:28:32;4.23;;;2.37;;
71464;SDS011;59274;49.874;9.154;2023-05-15T03:30:58;5.97;;;2.95;;
71464;SDS011;59274;49.874;9.154;2023-05-15T03:33:23;5.43;;;2.70;;
71464;SDS011;59274;49.874;9.154;2023-05-15T03:35:49;6.43;;;1.98;;
71464;SDS011;59274;49.874;9.154;2023-05-15T03:38:16;5.67;;;2.07;;
71464;SDS011;59274;49.874;9.154;2023-05-15T03:40:41;6.68;;;1.92;;
71464;SDS011;59274;49.874;9.154;2023-05-15T03:43:06;4.07;;;1.88;;
71464;SDS011;59274;49.874;9.154;2023-05-15T03:45:33;5.97;;;2.67;;
71464;SDS011;59274;49.874;9.154;2023-05-15T03:48:01;4.25;;;1.45;;
71464;SDS011;59274;49.874;9.154;2023-05-15T03:50:27;3.27;;;1.70;;
71464;SDS011;59274;49.874;9.154;2023-05-15T03:52:52;5.57;;;2.43;;
71464;SDS011;59274;49.874;9.154;2023-05-15T03:55:18;4.65;;;2.00;;
71464;SDS011;59274;49.874;9.154;2023-05-15T03:57:43;3.92;;;1.75;;
71464;SDS011;59274;49.874;9.154;2023-05-15T04:00:09;6.07;;;2.20;;
71464;SDS011;59274;49.874;9.154;2023-05-15T04:02:35;4.45;;;1.85;;
71464;SDS011;59274;49.874;9.154;2023-05-15T04:05:02;5.68;;;2.78;;
71464;SDS011;59274;49.874;9.154;2023-05-15T04:07:28;7.13;;;2.20;;
71464;SDS011;59274;49.874;9.154;2023-05-15T04:09:54;2.70;;;1.27;;
71464;SDS011;59274;49.874;9.154;2023-05-15T04:12:19;2.70;;;1.50;;
71464;SDS011;59274;49.874;9.154;2023-05-15T04:14:46;3.33;;;1.25;;
71464;SDS011;59274;49.874;9.154;2023-05-15T04:17:11;3.83;;;1.23;;
71464;SDS011;59274;49.874;9.154;2023-05-15T04:19:37;2.90;;;1.70;;
71464;SDS011;59274;49.874;9.154;2023-05-15T04:22:04;4.03;;;1.63;;
71464;SDS011;59274;49.874;9.154;2023-05-15T04:24:30;3.10;;;1.70;;
71464;SDS011;59274;49.874;9.154;2023-05-15T04:26:55;5.00;;;2.23;;
71464;SDS011;59274;49.874;9.154;2023-05-15T04:29:21;2.80;;;1.70;;
71464;SDS011;59274;49.874;9.154;2023-05-15T04:31:46;2.60;;;1.57;;
71464;SDS011;59274;49.874;9.154;2023-05-15T04:34:12;3.30;;;1.63;;
71464;SDS011;59274;49.874;9.154;2023-05-15T04:36:37;4.63;;;1.67;;
71464;SDS011;59274;49.874;9.154;2023-05-15T04:39:03;5.10;;;1.67;;
71464;SDS011;59274;49.874;9.154;2023-05-15T04:41:28;3.63;;;1.53;;
71464;SDS011;59274;49.874;9.154;2023-05-15T04:43:54;3.35;;;1.70;;
71464;SDS011;59274;49.874;9.154;2023-05-15T04:46:20;2.33;;;1.23;;
71464;SDS011;59274;49.874;9.154;2023-05-15T04:48:45;4.60;;;1.73;;
71464;SDS011;59274;49.874;9.154;2023-05-15T04:51:11;4.83;;;1.67;;
71464;SDS011;59274;49.874;9.154;2023-05-15T04:53:36;3.87;;;1.90;;
71464;SDS011;59274;49.874;9.154;2023-05-15T04:56:01;4.00;;;2.00;;
71464;SDS011;59274;49.874;9.154;2023-05-15T04:58:27;3.90;;;2.23;;
71464;SDS011;59274;49.874;9.154;2023-05-15T05:00:52;4.13;;;1.85;;
71464;SDS011;59274;49.874;9.154;2023-05-15T05:03:18;4.60;;;2.17;;
71464;SDS011;59274;49.874;9.154;2023-05-15T05:05:43;4.93;;;2.37;;
71464;SDS011;59274;49.874;9.154;2023-05-15T05:08:09;3.80;;;1.80;;
71464;SDS011;59274;49.874;9.154;2023-05-15T05:10:34;3.97;;;2.30;;
71464;SDS011;59274;49.874;9.154;2023-05-15T05:12:59;4.80;;;2.10;;
71464;SDS011;59274;49.874;9.154;2023-05-15T05:15:25;3.90;;;2.08;;
71464;SDS011;59274;49.874;9.154;2023-05-15T05:17:51;3.93;;;2.00;;
71464;SDS011;59274;49.874;9.154;2023-05-15T05:20:17;5.93;;;2.58;;
71464;SDS011;59274;49.874;9.154;2023-05-15T05:22:42;5.70;;;2.30;;
71464;SDS011;59274;49.874;9.154;2023-05-15T05:25:08;5.57;;;2.43;;
71464;SDS011;59274;49.874;9.154;2023-05-15T05:27:33;4.68;;;2.25;;
71464;SDS011;59274;49.874;9.154;2023-05-15T05:29:59;3.63;;;1.50;;
71464;SDS011;59274;49.874;9.154;2023-05-15T05:32:24;3.70;;;2.10;;
71464;SDS011;59274;49.874;9.154;2023-05-15T05:34:50;5.30;;;2.47;;
71464;SDS011;59274;49.874;9.154;2023-05-15T05:37:15;4.78;;;2.50;;
71464;SDS011;59274;49.874;9.154;2023-05-15T05:39:41;3.80;;;2.17;;
71464;SDS011;59274;49.874;9.154;2023-05-15T05:42:06;5.40;;;2.50;;
71464;SDS011;59274;49.874;9.154;2023-05-15T05:44:31;5.60;;;2.17;;
71464;SDS011;59274;49.874;9.154;2023-05-15T05:46:58;5.35;;;2.30;;
71464;SDS011;59274;49.874;9.154;2023-05-15T05:49:24;6.03;;;2.60;;
71464;SDS011;59274;49.874;9.154;2023-05-15T05:51:49;5.65;;;2.42;;
71464;SDS011;59274;49.874;9.154;2023-05-15T05:54:15;7.00;;;2.80;;
71464;SDS011;59274;49.874;9.154;2023-05-15T05:56:42;5.43;;;2.70;;
71464;SDS011;59274;49.874;9.154;2023-05-15T05:59:07;6.63;;;2.60;;
71464;SDS011;59274;49.874;9.154;2023-05-15T06:01:34;5.80;;;3.00;;
71464;SDS011;59274;49.874;9.154;2023-05-15T06:04:00;3.93;;;2.37;;
71464;SDS011;59274;49.874;9.154;2023-05-15T06:06:25;6.40;;;3.08;;
71464;SDS011;59274;49.874;9.154;2023-05-15T06:08:51;6.65;;;2.90;;
71464;SDS011;59274;49.874;9.154;2023-05-15T06:11:16;4.83;;;2.43;;
71464;SDS011;59274;49.874;9.154;2023-05-15T06:13:42;4.83;;;2.07;;
71464;SDS011;59274;49.874;9.154;2023-05-15T06:16:07;5.83;;;2.10;;
71464;SDS011;59274;49.874;9.154;2023-05-15T06:18:33;5.23;;;2.43;;
71464;SDS011;59274;49.874;9.154;2023-05-15T06:20:58;5.70;;;2.40;;
71464;SDS011;59274;49.874;9.154;2023-05-15T06:23:25;5.27;;;2.47;;
71464;SDS011;59274;49.874;9.154;2023-05-15T06:25:51;5.53;;;2.50;;
71464;SDS011;59274;49.874;9.154;2023-05-15T06:28:16;5.15;;;2.42;;
71464;SDS011;59274;49.874;9.154;2023-05-15T06:30:42;4.83;;;2.63;;
71464;SDS011;59274;49.874;9.154;2023-05-15T06:33:07;6.13;;;3.07;;
71464;SDS011;59274;49.874;9.154;2023-05-15T06:35:32;5.97;;;3.20;;
71464;SDS011;59274;49.874;9.154;2023-05-15T06:37:58;4.93;;;2.70;;
71464;SDS011;59274;49.874;9.154;2023-05-15T06:40:23;6.83;;;3.10;;
71464;SDS011;59274;49.874;9.154;2023-05-15T06:42:49;6.03;;;2.92;;
71464;SDS011;59274;49.874;9.154;2023-05-15T06:45:14;6.10;;;3.23;;
71464;SDS011;59274;49.874;9.154;2023-05-15T06:47:40;6.97;;;3.00;;
71464;SDS011;59274;49.874;9.154;2023-05-15T06:50:05;5.77;;;3.00;;
71464;SDS011;59274;49.874;9.154;2023-05-15T06:52:31;6.22;;;3.20;;
71464;SDS011;59274;49.874;9.154;2023-05-15T06:54:56;7.07;;;2.77;;
71464;SDS011;59274;49.874;9.154;2023-05-15T06:57:22;5.80;;;2.87;;
71464;SDS011;59274;49.874;9.154;2023-05-15T06:59:47;7.28;;;3.50;;
71464;SDS011;59274;49.874;9.154;2023-05-15T07:02:13;6.30;;;3.23;;
71464;SDS011;59274;49.874;9.154;2023-05-15T07:04:38;5.87;;;2.77;;
71464;SDS011;59274;49.874;9.154;2023-05-15T07:07:03;6.37;;;3.13;;
71464;SDS011;59274;49.874;9.154;2023-05-15T07:09:29;5.97;;;2.97;;
71464;SDS011;59274;49.874;9.154;2023-05-15T07:11:55;11.57;;;3.83;;
71464;SDS011;59274;49.874;9.154;2023-05-15T07:14:20;7.40;;;3.37;;
71464;SDS011;59274;49.874;9.154;2023-05-15T07:16:45;6.83;;;2.93;;
71464;SDS011;59274;49.874;9.154;2023-05-15T07:19:11;6.25;;;3.30;;
71464;SDS011;59274;49.874;9.154;2023-05-15T07:21:37;6.70;;;3.27;;
71464;SDS011;59274;49.874;9.154;2023-05-15T07:24:03;7.32;;;3.00;;
71464;SDS011;59274;49.874;9.154;2023-05-15T07:26:29;7.63;;;3.30;;
71464;SDS011;59274;49.874;9.154;2023-05-15T07:28:55;7.60;;;3.97;;
71464;SDS011;59274;49.874;9.154;2023-05-15T07:31:20;6.10;;;3.37;;
71464;SDS011;59274;49.874;9.154;2023-05-15T07:33:46;7.80;;;3.63;;
71464;SDS011;59274;49.874;9.154;2023-05-15T07:36:12;8.40;;;4.07;;
71464;SDS011;59274;49.874;9.154;2023-05-15T07:38:37;5.80;;;2.90;;
71464;SDS011;59274;49.874;9.154;2023-05-15T07:41:02;7.60;;;3.37;;
71464;SDS011;59274;49.874;9.154;2023-05-15T07:43:28;6.97;;;3.20;;
71464;SDS011;59274;49.874;9.154;2023-05-15T07:45:53;6.20;;;3.10;;
71464;SDS011;59274;49.874;9.154;2023-05-15T07:48:19;6.57;;;3.00;;
71464;SDS011;59274;49.874;9.154;2023-05-15T07:50:45;7.20;;;3.22;;
71464;SDS011;59274;49.874;9.154;2023-05-15T07:53:12;7.38;;;3.35;;
71464;SDS011;59274;49.874;9.154;2023-05-15T07:55:37;6.13;;;2.70;;
71464;SDS011;59274;49.874;9.154;2023-05-15T07:58:03;7.53;;;3.97;;
71464;SDS011;59274;49.874;9.154;2023-05-15T08:00:28;6.33;;;3.20;;
71464;SDS011;59274;49.874;9.154;2023-05-15T08:02:54;6.13;;;3.23;;
71464;SDS011;59274;49.874;9.154;2023-05-15T08:05:19;6.22;;;3.38;;
71464;SDS011;59274;49.874;9.154;2023-05-15T08:07:45;6.25;;;3.58;;
71464;SDS011;59274;49.874;9.154;2023-05-15T08:10:10;7.17;;;3.13;;
71464;SDS011;59274;49.874;9.154;2023-05-15T08:12:35;6.37;;;3.57;;
71464;SDS011;59274;49.874;9.154;2023-05-15T08:15:01;8.87;;;4.00;;
71464;SDS011;59274;49.874;9.154;2023-05-15T08:17:26;7.93;;;3.28;;
71464;SDS011;59274;49.874;9.154;2023-05-15T08:19:52;5.90;;;3.20;;
71464;SDS011;59274;49.874;9.154;2023-05-15T08:22:17;6.43;;;2.60;;
71464;SDS011;59274;49.874;9.154;2023-05-15T08:24:43;6.57;;;3.28;;
71464;SDS011;59274;49.874;9.154;2023-05-15T08:27:09;7.20;;;3.17;;
71464;SDS011;59274;49.874;9.154;2023-05-15T08:29:35;6.00;;;2.80;;
71464;SDS011;59274;49.874;9.154;2023-05-15T08:32:01;5.17;;;2.87;;
71464;SDS011;59274;49.874;9.154;2023-05-15T08:34:27;5.28;;;2.85;;
71464;SDS011;59274;49.874;9.154;2023-05-15T08:36:52;7.68;;;3.00;;
71464;SDS011;59274;49.874;9.154;2023-05-15T08:39:19;5.72;;;3.17;;
71464;SDS011;59274;49.874;9.154;2023-05-15T08:41:53;7.93;;;3.30;;
71464;SDS011;59274;49.874;9.154;2023-05-15T08:44:22;4.45;;;2.40;;
71464;SDS011;59274;49.874;9.154;2023-05-15T08:46:48;4.78;;;2.83;;
71464;SDS011;59274;49.874;9.154;2023-05-15T08:49:32;5.57;;;2.80;;
71464;SDS011;59274;49.874;9.154;2023-05-15T08:52:03;5.68;;;2.78;;
71464;SDS011;59274;49.874;9.154;2023-05-15T08:54:29;4.32;;;2.78;;
71464;SDS011;59274;49.874;9.154;2023-05-15T08:56:55;5.37;;;2.73;;
71464;SDS011;59274;49.874;9.154;2023-05-15T08:59:21;5.10;;;2.60;;
71464;SDS011;59274;49.874;9.154;2023-05-15T09:01:46;6.07;;;3.15;;
71464;SDS011;59274;49.874;9.154;2023-05-15T09:04:13;4.88;;;2.60;;
71464;SDS011;59274;49.874;9.154;2023-05-15T09:06:39;5.65;;;3.00;;
71464;SDS011;59274;49.874;9.154;2023-05-15T09:09:05;7.03;;;2.70;;
71464;SDS011;59274;49.874;9.154;2023-05-15T09:11:33;5.57;;;2.60;;
71464;SDS011;59274;49.874;9.154;2023-05-15T09:13:59;5.53;;;2.55;;
71464;SDS011;59274;49.874;9.154;2023-05-15T09:16:25;6.18;;;2.65;;
71464;SDS011;59274;49.874;9.154;2023-05-15T09:18:52;11.48;;;3.08;;
71464;SDS011;59274;49.874;9.154;2023-05-15T09:21:27;7.18;;;2.70;;
71464;SDS011;59274;49.874;9.154;2023-05-15T09:24:03;5.80;;;3.13;;
71464;SDS011;59274;49.874;9.154;2023-05-15T09:27:02;4.85;;;2.78;;
71464;SDS011;59274;49.874;9.154;2023-05-15T09:29:32;6.47;;;3.13;;
71464;SDS011;59274;49.874;9.154;2023-05-15T09:32:03;6.70;;;3.17;;
71464;SDS011;59274;49.874;9.154;2023-05-15T09:34:33;5.00;;;2.55;;
71464;SDS011;59274;49.874;9.154;2023-05-15T09:37:01;5.03;;;2.13;;
71464;SDS011;59274;49.874;9.154;2023-05-15T09:39:29;6.25;;;3.00;;
71464;SDS011;59274;49.874;9.154;2023-05-15T09:42:15;4.27;;;2.47;;
71464;SDS011;59274;49.874;9.154;2023-05-15T09:44:40;6.43;;;2.58;;
71464;SDS011;59274;49.874;9.154;2023-05-15T09:47:07;6.20;;;2.83;;
71464;SDS011;59274;49.874;9.154;2023-05-15T09:49:37;6.43;;;2.87;;
71464;SDS011;59274;49.874;9.154;2023-05-15T09:52:02;5.25;;;2.47;;
71464;SDS011;59274;49.874;9.154;2023-05-15T09:54:32;5.68;;;2.72;;
71464;SDS011;59274;49.874;9.154;2023-05-15T09:57:09;4.77;;;2.57;;
71464;SDS011;59274;49.874;9.154;2023-05-15T09:59:43;5.35;;;2.65;;
71464;SDS011;59274;49.874;9.154;2023-05-15T10:02:13;5.30;;;2.35;;
71464;SDS011;59274;49.874;9.154;2023-05-15T10:04:55;5.00;;;2.60;;
71464;SDS011;59274;49.874;9.154;2023-05-15T10:07:28;4.97;;;2.70;;
71464;SDS011;59274;49.874;9.154;2023-05-15T10:09:58;4.67;;;2.40;;
71464;SDS011;59274;49.874;9.154;2023-05-15T10:12:25;4.82;;;2.72;;
71464;SDS011;59274;49.874;9.154;2023-05-15T10:14:52;4.93;;;2.83;;
71464;SDS011;59274;49.874;9.154;2023-05-15T10:17:21;6.55;;;2.30;;
71464;SDS011;59274;49.874;9.154;2023-05-15T10:19:49;9.40;;;2.37;;
71464;SDS011;59274;49.874;9.154;2023-05-15T10:22:17;6.25;;;2.70;;
71464;SDS011;59274;49.874;9.154;2023-05-15T10:24:46;4.97;;;2.63;;
71464;SDS011;59274;49.874;9.154;2023-05-15T10:27:16;5.18;;;2.40;;
71464;SDS011;59274;49.874;9.154;2023-05-15T10:29:43;5.53;;;3.00;;
71464;SDS011;59274;49.874;9.154;2023-05-15T10:32:10;4.63;;;2.50;;
71464;SDS011;59274;49.874;9.154;2023-05-15T10:34:37;4.03;;;2.35;;
71464;SDS011;59274;49.874;9.154;2023-05-15T10:37:03;4.60;;;2.28;;
71464;SDS011;59274;49.874;9.154;2023-05-15T10:39:29;4.47;;;2.70;;
71464;SDS011;59274;49.874;9.154;2023-05-15T10:41:55;3.75;;;2.08;;
71464;SDS011;59274;49.874;9.154;2023-05-15T10:44:22;4.47;;;2.33;;
71464;SDS011;59274;49.874;9.154;2023-05-15T10:46:47;5.13;;;2.83;;
71464;SDS011;59274;49.874;9.154;2023-05-15T10:49:13;4.80;;;2.47;;
71464;SDS011;59274;49.874;9.154;2023-05-15T10:51:38;6.27;;;2.83;;
71464;SDS011;59274;49.874;9.154;2023-05-15T10:54:07;4.90;;;2.70;;
71464;SDS011;59274;49.874;9.154;2023-05-15T10:56:32;4.80;;;2.50;;
71464;SDS011;59274;49.874;9.154;2023-05-15T10:59:04;5.75;;;2.85;;
71464;SDS011;59274;49.874;9.154;2023-05-15T11:01:35;5.22;;;2.65;;
71464;SDS011;59274;49.874;9.154;2023-05-15T11:04:12;5.13;;;2.58;;
71464;SDS011;59274;49.874;9.154;2023-05-15T11:06:40;4.28;;;2.67;;
71464;SDS011;59274;49.874;9.154;2023-05-15T11:14:22;6.63;;;2.75;;
71464;SDS011;59274;49.874;9.154;2023-05-15T11:19:33;5.82;;;2.67;;
71464;SDS011;59274;49.874;9.154;2023-05-15T11:22:55;5.78;;;3.17;;
71464;SDS011;59274;49.874;9.154;2023-05-15T11:24:56;5.05;;;2.80;;
71464;SDS011;59274;49.874;9.154;2023-05-15T11:27:24;5.05;;;2.60;;
71464;SDS011;59274;49.874;9.154;2023-05-15T11:35:28;5.25;;;2.97;;
71464;SDS011;59274;49.874;9.154;2023-05-15T11:38:17;5.03;;;2.58;;
71464;SDS011;59274;49.874;9.154;2023-05-15T11:40:56;5.68;;;2.65;;
71464;SDS011;59274;49.874;9.154;2023-05-15T11:43:27;3.40;;;2.20;;
71464;SDS011;59274;49.874;9.154;2023-05-15T11:46:13;5.47;;;2.67;;
71464;SDS011;59274;49.874;9.154;2023-05-15T11:48:42;6.00;;;2.67;;
71464;SDS011;59274;49.874;9.154;2023-05-15T11:51:15;6.32;;;2.63;;
71464;SDS011;59274;49.874;9.154;2023-05-15T11:53:45;5.90;;;2.25;;
71464;SDS011;59274;49.874;9.154;2023-05-15T11:56:17;3.95;;;2.28;;
71464;SDS011;59274;49.874;9.154;2023-05-15T11:58:43;4.82;;;2.40;;
71464;SDS011;59274;49.874;9.154;2023-05-15T12:01:12;4.05;;;2.50;;
71464;SDS011;59274;49.874;9.154;2023-05-15T12:03:38;4.35;;;2.58;;
71464;SDS011;59274;49.874;9.154;2023-05-15T12:06:03;5.07;;;2.60;;
71464;SDS011;59274;49.874;9.154;2023-05-15T12:08:32;3.57;;;2.37;;
71464;SDS011;59274;49.874;9.154;2023-05-15T12:11:02;5.57;;;2.30;;
71464;SDS011;59274;49.874;9.154;2023-05-15T12:13:29;3.92;;;2.33;;
71464;SDS011;59274;49.874;9.154;2023-05-15T12:15:56;4.85;;;2.70;;
71464;SDS011;59274;49.874;9.154;2023-05-15T12:18:23;4.10;;;2.38;;
71464;SDS011;59274;49.874;9.154;2023-05-15T12:20:50;3.80;;;2.00;;
71464;SDS011;59274;49.874;9.154;2023-05-15T12:23:19;4.82;;;2.42;;
71464;SDS011;59274;49.874;9.154;2023-05-15T12:25:46;4.30;;;2.20;;
71464;SDS011;59274;49.874;9.154;2023-05-15T12:28:14;4.30;;;2.35;;
71464;SDS011;59274;49.874;9.154;2023-05-15T12:30:40;5.07;;;2.50;;
71464;SDS011;59274;49.874;9.154;2023-05-15T12:33:07;5.40;;;2.60;;
71464;SDS011;59274;49.874;9.154;2023-05-15T12:35:43;6.68;;;2.70;;
71464;SDS011;59274;49.874;9.154;2023-05-15T12:38:14;7.75;;;3.40;;
71464;SDS011;59274;49.874;9.154;2023-05-15T12:40:40;5.35;;;3.00;;
71464;SDS011;59274;49.874;9.154;2023-05-15T12:43:09;5.00;;;2.90;;
71464;SDS011;59274;49.874;9.154;2023-05-15T12:45:36;4.75;;;2.50;;
71464;SDS011;59274;49.874;9.154;2023-05-15T12:48:02;4.53;;;2.53;;
71464;SDS011;59274;49.874;9.154;2023-05-15T12:50:31;4.57;;;2.40;;
71464;SDS011;59274;49.874;9.154;2023-05-15T12:52:57;4.82;;;2.80;;
71464;SDS011;59274;49.874;9.154;2023-05-15T12:55:26;4.85;;;2.55;;
71464;SDS011;59274;49.874;9.154;2023-05-15T12:57:55;4.68;;;2.60;;
71464;SDS011;59274;49.874;9.154;2023-05-15T13:00:22;6.50;;;2.60;;
71464;SDS011;59274;49.874;9.154;2023-05-15T13:02:48;8.15;;;2.72;;
71464;SDS011;59274;49.874;9.154;2023-05-15T13:05:16;4.22;;;2.47;;
71464;SDS011;59274;49.874;9.154;2023-05-15T13:07:42;4.90;;;2.50;;
71464;SDS011;59274;49.874;9.154;2023-05-15T13:10:08;9.50;;;2.10;;
71464;SDS011;59274;49.874;9.154;2023-05-15T13:12:38;4.20;;;2.10;;
71464;SDS011;59274;49.874;9.154;2023-05-15T13:15:20;4.20;;;2.17;;
71464;SDS011;59274;49.874;9.154;2023-05-15T13:20:23;4.37;;;2.30;;
71464;SDS011;59274;49.874;9.154;2023-05-15T13:22:49;4.85;;;2.40;;
71464;SDS011;59274;49.874;9.154;2023-05-15T13:25:19;5.30;;;2.45;;
71464;SDS011;59274;49.874;9.154;2023-05-15T13:27:47;5.28;;;2.22;;
71464;SDS011;59274;49.874;9.154;2023-05-15T13:30:16;6.65;;;2.88;;
71464;SDS011;59274;49.874;9.154;2023-05-15T13:32:42;5.43;;;2.58;;
71464;SDS011;59274;49.874;9.154;2023-05-15T13:35:08;4.50;;;2.40;;
71464;SDS011;59274;49.874;9.154;2023-05-15T13:37:34;5.13;;;2.33;;
71464;SDS011;59274;49.874;9.154;2023-05-15T13:40:00;4.45;;;2.00;;
71464;SDS011;59274;49.874;9.154;2023-05-15T13:42:26;4.05;;;2.28;;
71464;SDS011;59274;49.874;9.154;2023-05-15T13:44:52;4.77;;;2.50;;
71464;SDS011;59274;49.874;9.154;2023-05-15T13:47:17;6.53;;;2.87;;
71464;SDS011;59274;49.874;9.154;2023-05-15T13:49:43;6.30;;;2.63;;
71464;SDS011;59274;49.874;9.154;2023-05-15T13:52:09;5.53;;;2.70;;
71464;SDS011;59274;49.874;9.154;2023-05-15T13:54:35;4.27;;;2.50;;
71464;SDS011;59274;49.874;9.154;2023-05-15T13:57:00;3.90;;;2.33;;
71464;SDS011;59274;49.874;9.154;2023-05-15T13:59:25;4.63;;;2.30;;
71464;SDS011;59274;49.874;9.154;2023-05-15T14:01:51;5.97;;;2.80;;
71464;SDS011;59274;49.874;9.154;2023-05-15T14:04:16;4.83;;;2.37;;
71464;SDS011;59274;49.874;9.154;2023-05-15T14:06:42;6.72;;;2.70;;
71464;SDS011;59274;49.874;9.154;2023-05-15T14:09:08;4.80;;;2.50;;
71464;SDS011;59274;49.874;9.154;2023-05-15T14:11:33;3.97;;;2.40;;
71464;SDS011;59274;49.874;9.154;2023-05-15T14:13:59;4.70;;;2.60;;
71464;SDS011;59274;49.874;9.154;2023-05-15T14:16:25;4.37;;;2.33;;
71464;SDS011;59274;49.874;9.154;2023-05-15T14:18:50;5.40;;;2.60;;
71464;SDS011;59274;49.874;9.154;2023-05-15T14:21:15;5.10;;;2.40;;
71464;SDS011;59274;49.874;9.154;2023-05-15T14:23:44;5.27;;;2.23;;
71464;SDS011;59274;49.874;9.154;2023-05-15T14:26:09;5.57;;;2.85;;
71464;SDS011;59274;49.874;9.154;2023-05-15T14:28:35;5.13;;;2.50;;
71464;SDS011;59274;49.874;9.154;2023-05-15T14:31:00;6.15;;;2.30;;
71464;SDS011;59274;49.874;9.154;2023-05-15T14:33:25;4.60;;;2.67;;
71464;SDS011;59274;49.874;9.154;2023-05-15T14:35:51;5.30;;;2.50;;
71464;SDS011;59274;49.874;9.154;2023-05-15T14:38:17;5.05;;;2.47;;
71464;SDS011;59274;49.874;9.154;2023-05-15T14:40:42;4.43;;;2.40;;
71464;SDS011;59274;49.874;9.154;2023-05-15T14:43:08;5.60;;;2.90;;
71464;SDS011;59274;49.874;9.154;2023-05-15T14:45:33;4.85;;;2.65;;
71464;SDS011;59274;49.874;9.154;2023-05-15T14:47:59;5.73;;;2.83;;
71464;SDS011;59274;49.874;9.154;2023-05-15T14:50:24;8.25;;;2.95;;
71464;SDS011;59274;49.874;9.154;2023-05-15T14:52:50;6.60;;;2.97;;
71464;SDS011;59274;49.874;9.154;2023-05-15T14:55:17;6.20;;;3.20;;
71464;SDS011;59274;49.874;9.154;2023-05-15T14:57:46;5.43;;;3.33;;
71464;SDS011;59274;49.874;9.154;2023-05-15T15:00:13;6.03;;;3.47;;
71464;SDS011;59274;49.874;9.154;2023-05-15T15:02:39;5.53;;;3.42;;
71464;SDS011;59274;49.874;9.154;2023-05-15T15:05:06;5.75;;;2.60;;
71464;SDS011;59274;49.874;9.154;2023-05-15T15:07:56;4.93;;;2.63;;
71464;SDS011;59274;49.874;9.154;2023-05-15T15:10:31;4.83;;;2.50;;
71464;SDS011;59274;49.874;9.154;2023-05-15T15:12:58;4.35;;;2.55;;
71464;SDS011;59274;49.874;9.154;2023-05-15T15:15:24;6.03;;;3.05;;